Holloway, Minnesota
Current Conditions -  °F | °C
As of 2:15 AM on Thursday 29 Jan 2015 (Local Time) from KAQP Reporting Station
Overcast Overcast  
Wind Chill: 18°   Ceiling: 1300
Heat Index: 32°   Visibility: 10mi
Dew Point: 27°   Wind: 30mph
Humidity: 80%   Direction: 340°NNW
Pressure: 30.07"   Gusts: 39mph
Location:  45.25°N, 95.91°W
Report Text: KAQP 290815Z AUTO 34026G34KT 10SM OVC013 00/M03 A3007 RMK AO2
Loading
Personal Weather Stations






























Interactive Weather Map New forecast layout! Learn more

10-Day Weather Forecast

Advertisements
Track Severe Weather on mobile